Time;durP1;ratioP1;P1;durP2;ratioP2;P2;SDS_P1;SDS_P2;PMS_P1;PMS_P2;Temp;Humidity;BMP_temperature;BMP_pressure;BME280_temperature;BME280_humidity;BME280_pressure;Samples;Min_cycle;Max_cycle;Signal;HPM_P1;HPM_P2
2021/05/09 00:00:29;;;;;;;13.23;4.65;;;31.20;21.60;;;;;;1041612;28;20022;-77
2021/05/09 00:01:00;;;;;;;16.15;5.20;;;31.20;21.70;;;;;;1037664;28;20112;-78
2021/05/09 00:01:32;;;;;;;13.38;4.80;;;31.20;21.70;;;;;;1037399;28;20022;-78
2021/05/09 00:02:08;;;;;;;15.10;4.78;;;31.10;21.80;;;;;;1037573;28;20029;-78
2021/05/09 00:02:39;;;;;;;13.55;4.78;;;31.10;21.90;;;;;;1038888;28;20026;-78
2021/05/09 00:03:11;;;;;;;13.43;4.68;;;31.10;21.80;;;;;;1038270;28;20022;-79
2021/05/09 00:03:42;;;;;;;15.07;4.80;;;31.10;22.00;;;;;;1042068;28;20036;-78
2021/05/09 00:04:14;;;;;;;12.02;4.82;;;31.10;21.80;;;;;;1041305;28;20017;-78
2021/05/09 00:04:45;;;;;;;16.08;4.78;;;31.10;21.90;;;;;;1038838;28;20022;-78
2021/05/09 00:05:16;;;;;;;14.00;5.15;;;31.10;22.00;;;;;;1046157;28;20035;-77
2021/05/09 00:05:48;;;;;;;13.32;5.28;;;31.10;21.80;;;;;;1046541;28;20017;-77
2021/05/09 00:06:19;;;;;;;16.95;4.90;;;31.00;21.80;;;;;;1042203;28;20105;-77
2021/05/09 00:06:53;;;;;;;13.52;4.60;;;31.00;21.90;;;;;;1041396;28;20026;-78
2021/05/09 00:07:24;;;;;;;13.35;5.20;;;31.00;22.10;;;;;;1040124;28;20431;-77
2021/05/09 00:07:56;;;;;;;13.25;4.70;;;31.00;22.30;;;;;;1041195;28;20033;-77
2021/05/09 00:08:27;;;;;;;14.88;5.45;;;31.00;22.20;;;;;;1041806;28;20081;-77
2021/05/09 00:08:58;;;;;;;12.57;4.90;;;31.00;22.30;;;;;;1041665;28;20065;-78
2021/05/09 00:09:30;;;;;;;17.65;5.05;;;31.00;22.10;;;;;;1040923;28;20041;-77
2021/05/09 00:10:03;;;;;;;15.10;5.18;;;30.90;21.90;;;;;;1039570;28;20383;-77
2021/05/09 00:10:34;;;;;;;16.80;4.88;;;30.90;21.90;;;;;;1033388;28;20015;-78
2021/05/09 00:11:06;;;;;;;13.55;5.05;;;30.90;22.10;;;;;;1035532;28;20045;-78
2021/05/09 00:11:37;;;;;;;16.50;5.10;;;30.90;22.00;;;;;;1034646;28;20440;-78
2021/05/09 00:12:09;;;;;;;13.00;4.85;;;30.80;21.90;;;;;;1040448;28;20028;-78
2021/05/09 00:12:41;;;;;;;13.10;4.70;;;30.90;22.00;;;;;;1041850;28;20013;-78
2021/05/09 00:13:12;;;;;;;15.23;5.13;;;30.90;22.10;;;;;;1041518;28;20108;-78
2021/05/09 00:13:44;;;;;;;17.30;5.05;;;30.80;21.80;;;;;;1036628;28;20444;-77
2021/05/09 00:14:16;;;;;;;13.05;4.70;;;30.80;22.10;;;;;;1041824;28;20025;-77
2021/05/09 00:14:47;;;;;;;14.93;5.15;;;30.80;22.00;;;;;;1037407;28;20068;-78
2021/05/09 00:15:22;;;;;;;12.73;4.80;;;30.80;22.60;;;;;;1038323;28;20021;-78
2021/05/09 00:15:53;;;;;;;14.48;5.10;;;30.80;22.60;;;;;;1040877;28;20018;-78
2021/05/09 00:16:25;;;;;;;12.10;4.35;;;30.80;22.50;;;;;;1034262;28;20475;-78
2021/05/09 00:16:56;;;;;;;12.40;4.65;;;30.80;22.30;;;;;;1037430;28;20072;-78
2021/05/09 00:17:27;;;;;;;15.63;4.88;;;30.80;22.10;;;;;;1037388;28;20002;-78
2021/05/09 00:17:59;;;;;;;17.17;4.95;;;30.80;22.00;;;;;;1033873;28;20014;-77
2021/05/09 00:18:30;;;;;;;12.80;4.78;;;30.90;21.90;;;;;;1038051;28;20029;-77
2021/05/09 00:19:02;;;;;;;14.25;5.13;;;30.80;21.90;;;;;;1037626;28;20014;-78
2021/05/09 00:19:34;;;;;;;13.88;4.68;;;30.80;21.80;;;;;;1037492;28;20010;-78
2021/05/09 00:20:08;;;;;;;12.40;4.30;;;30.80;21.90;;;;;;1037579;28;20363;-77
2021/05/09 00:20:39;;;;;;;13.43;5.13;;;30.80;21.90;;;;;;1038400;28;20014;-78
2021/05/09 00:21:10;;;;;;;12.68;4.60;;;30.70;21.80;;;;;;1041707;28;20009;-77
2021/05/09 00:21:42;;;;;;;14.88;4.63;;;30.70;21.80;;;;;;1037417;28;20025;-78
2021/05/09 00:22:13;;;;;;;11.10;4.60;;;30.70;22.00;;;;;;1038170;28;20060;-78
2021/05/09 00:22:45;;;;;;;13.73;4.55;;;30.70;21.80;;;;;;1037337;28;20104;-78
2021/05/09 00:23:16;;;;;;;14.63;4.70;;;30.60;21.90;;;;;;1036685;28;20398;-78
2021/05/09 00:23:48;;;;;;;13.82;4.75;;;30.60;21.90;;;;;;1034510;28;20520;-78
2021/05/09 00:24:19;;;;;;;12.40;4.85;;;30.60;21.90;;;;;;1037065;28;20014;-78
2021/05/09 00:24:51;;;;;;;17.80;5.10;;;30.60;21.90;;;;;;1042053;28;20108;-78
2021/05/09 00:25:22;;;;;;;17.00;5.22;;;30.60;21.80;;;;;;1037763;28;20451;-78
2021/05/09 00:25:53;;;;;;;15.32;4.32;;;30.60;21.90;;;;;;1037441;28;20439;-78
2021/05/09 00:26:25;;;;;;;16.35;4.25;;;30.60;22.00;;;;;;1037563;28;20092;-78
2021/05/09 00:26:56;;;;;;;14.40;4.53;;;30.60;21.90;;;;;;1033756;28;20026;-78
2021/05/09 00:27:28;;;;;;;12.32;4.70;;;30.60;21.80;;;;;;1037872;28;20502;-77
2021/05/09 00:27:59;;;;;;;13.90;4.60;;;30.60;21.90;;;;;;1037477;28;20021;-78
2021/05/09 00:28:30;;;;;;;13.40;4.90;;;30.60;22.30;;;;;;1036336;28;20097;-77
2021/05/09 00:29:02;;;;;;;17.05;4.97;;;30.50;21.80;;;;;;1033470;28;20023;-77
2021/05/09 00:29:33;;;;;;;17.15;4.95;;;30.50;21.80;;;;;;1033370;28;20109;-77
2021/05/09 00:30:05;;;;;;;14.93;5.05;;;30.50;21.80;;;;;;1037650;28;20101;-77
2021/05/09 00:30:37;;;;;;;16.55;4.93;;;30.50;22.10;;;;;;1036471;28;20026;-77
2021/05/09 00:31:08;;;;;;;14.75;4.70;;;30.50;22.10;;;;;;1041789;28;20021;-77
2021/05/09 00:31:39;;;;;;;15.65;4.88;;;30.40;22.00;;;;;;1037619;28;20014;-77
2021/05/09 00:32:11;;;;;;;13.75;4.60;;;30.40;21.90;;;;;;1039324;28;20033;-77
2021/05/09 00:32:46;;;;;;;12.85;4.65;;;30.40;22.10;;;;;;1037556;28;20026;-77
2021/05/09 00:33:17;;;;;;;16.17;4.50;;;30.40;22.30;;;;;;1038370;28;20057;-77
2021/05/09 00:33:49;;;;;;;14.52;4.72;;;30.40;22.30;;;;;;1037206;28;20065;-77
2021/05/09 00:34:20;;;;;;;12.25;4.38;;;30.40;22.50;;;;;;1034708;28;20388;-77
2021/05/09 00:34:51;;;;;;;14.95;4.97;;;30.40;22.00;;;;;;1033755;28;20202;-77
2021/05/09 00:35:23;;;;;;;11.98;4.60;;;30.50;22.20;;;;;;1029938;28;20019;-77
2021/05/09 00:35:54;;;;;;;14.18;4.90;;;30.50;22.10;;;;;;1029286;28;20023;-77
2021/05/09 00:36:26;;;;;;;13.05;4.97;;;30.50;22.20;;;;;;1027302;28;20030;-77
2021/05/09 00:36:58;;;;;;;13.32;4.80;;;30.50;22.50;;;;;;1033824;28;20089;-77
2021/05/09 00:37:29;;;;;;;12.88;5.07;;;30.50;22.40;;;;;;1038134;28;20379;-77
2021/05/09 00:38:01;;;;;;;12.07;4.63;;;30.50;22.30;;;;;;1041740;28;20093;-77
2021/05/09 00:38:32;;;;;;;14.77;4.80;;;30.50;22.20;;;;;;1041527;28;20018;-77
2021/05/09 00:39:04;;;;;;;12.13;4.75;;;30.50;22.20;;;;;;1039686;28;20018;-77
2021/05/09 00:39:35;;;;;;;15.70;5.10;;;30.50;22.40;;;;;;1038373;28;20025;-77
2021/05/09 00:40:08;;;;;;;14.60;4.88;;;30.50;22.30;;;;;;1040864;28;20017;-77
2021/05/09 00:40:40;;;;;;;18.80;4.93;;;30.50;22.00;;;;;;1041935;28;20041;-77
2021/05/09 00:41:11;;;;;;;15.13;5.00;;;30.50;22.20;;;;;;1041998;28;20116;-77
2021/05/09 00:41:42;;;;;;;18.88;5.53;;;30.50;22.10;;;;;;1041556;28;20021;-77
2021/05/09 00:42:14;;;;;;;12.70;4.65;;;30.50;21.90;;;;;;1037365;28;20018;-77
2021/05/09 00:42:45;;;;;;;15.38;4.75;;;30.50;22.30;;;;;;1032123;28;20019;-77
2021/05/09 00:43:17;;;;;;;10.20;4.35;;;30.50;22.50;;;;;;1033965;28;20018;-77
2021/05/09 00:43:49;;;;;;;11.23;4.32;;;30.60;21.80;;;;;;1038242;28;20145;-78
2021/05/09 00:44:20;;;;;;;13.93;4.60;;;30.60;21.30;;;;;;1041817;28;21305;-77
2021/05/09 00:44:51;;;;;;;14.88;4.70;;;30.60;21.60;;;;;;1044642;28;20096;-77
2021/05/09 00:45:23;;;;;;;13.85;4.75;;;30.60;22.10;;;;;;1037877;28;20029;-77
2021/05/09 00:45:55;;;;;;;13.88;4.75;;;30.60;22.30;;;;;;1040805;28;20030;-77
2021/05/09 00:46:26;;;;;;;12.45;4.90;;;30.60;22.50;;;;;;1036773;28;20018;-77
2021/05/09 00:46:58;;;;;;;12.57;4.70;;;30.70;22.50;;;;;;1037154;28;20091;-77
2021/05/09 00:47:29;;;;;;;13.77;4.60;;;30.70;22.50;;;;;;1037686;28;20022;-77
2021/05/09 00:48:00;;;;;;;12.60;4.65;;;30.80;22.50;;;;;;1041520;28;20467;-77
2021/05/09 00:48:32;;;;;;;11.70;4.72;;;30.80;22.30;;;;;;1037576;28;20022;-77
2021/05/09 00:49:05;;;;;;;15.68;5.30;;;30.80;22.30;;;;;;1037456;28;20021;-77
2021/05/09 00:49:37;;;;;;;15.57;4.65;;;30.80;22.60;;;;;;1034452;28;20014;-78
2021/05/09 00:50:09;;;;;;;13.77;5.13;;;30.80;21.80;;;;;;1037229;28;20428;-77
2021/05/09 00:50:40;;;;;;;15.88;4.88;;;30.80;21.80;;;;;;1041441;28;20029;-77
2021/05/09 00:51:12;;;;;;;13.73;5.25;;;30.80;21.90;;;;;;1041402;28;20075;-77
2021/05/09 00:51:46;;;;;;;11.25;4.72;;;30.80;22.00;;;;;;1041888;28;20018;-77
2021/05/09 00:52:19;;;;;;;16.95;4.88;;;30.90;21.90;;;;;;1039380;28;20042;-77
2021/05/09 00:52:50;;;;;;;14.90;4.63;;;30.90;21.90;;;;;;1040735;28;20026;-77
2021/05/09 00:53:25;;;;;;;15.55;5.03;;;30.80;21.60;;;;;;1039895;28;20256;-76
2021/05/09 00:53:58;;;;;;;12.68;4.40;;;30.80;21.70;;;;;;1041088;28;20096;-77
2021/05/09 00:54:32;;;;;;;13.68;5.03;;;30.80;21.50;;;;;;1037335;28;20366;-77
2021/05/09 00:55:07;;;;;;;14.30;4.80;;;30.80;21.50;;;;;;1038581;28;20375;-77
2021/05/09 00:55:39;;;;;;;17.40;5.18;;;30.70;21.50;;;;;;1036319;28;20018;-77
2021/05/09 00:56:15;;;;;;;13.55;4.90;;;30.70;21.80;;;;;;1033686;28;20107;-77
2021/05/09 00:56:49;;;;;;;12.68;4.93;;;30.70;21.70;;;;;;1031974;28;20530;-77
2021/05/09 00:57:23;;;;;;;14.50;4.55;;;30.70;21.90;;;;;;1033826;28;20165;-77
2021/05/09 00:57:56;;;;;;;13.57;5.20;;;30.60;21.90;;;;;;1038463;28;20022;-78
2021/05/09 00:58:28;;;;;;;13.68;5.30;;;30.60;22.20;;;;;;1040416;28;20029;-77
2021/05/09 00:59:00;;;;;;;14.05;5.03;;;30.70;22.50;;;;;;1044064;28;20025;-77
2021/05/09 00:59:36;;;;;;;15.25;4.88;;;30.70;22.10;;;;;;1042424;28;20018;-77
2021/05/09 01:00:09;;;;;;;13.15;5.05;;;30.70;22.10;;;;;;1043365;28;20109;-77
2021/05/09 01:00:41;;;;;;;15.55;4.90;;;30.70;22.00;;;;;;1040272;28;20391;-77
2021/05/09 01:01:12;;;;;;;13.68;4.78;;;30.70;22.00;;;;;;1040927;28;20061;-77
2021/05/09 01:01:46;;;;;;;13.73;4.80;;;30.70;22.00;;;;;;1035225;28;20058;-77
2021/05/09 01:02:18;;;;;;;14.60;4.90;;;30.70;22.00;;;;;;1036879;28;20076;-77
2021/05/09 01:02:49;;;;;;;17.67;5.68;;;30.70;22.00;;;;;;1032472;28;20083;-77
2021/05/09 01:03:27;;;;;;;15.65;4.90;;;30.70;21.90;;;;;;1036674;28;20022;-77
2021/05/09 01:03:59;;;;;;;12.70;4.60;;;30.70;21.80;;;;;;1039782;28;20018;-77
2021/05/09 01:04:31;;;;;;;16.25;5.18;;;30.70;22.00;;;;;;1041690;28;21007;-77
2021/05/09 01:05:04;;;;;;;14.77;5.50;;;30.70;22.00;;;;;;1038322;28;20533;-77
2021/05/09 01:05:36;;;;;;;13.27;4.93;;;30.70;21.90;;;;;;1036181;28;20347;-77
2021/05/09 01:06:08;;;;;;;14.77;4.95;;;30.70;21.80;;;;;;1039762;28;20032;-77
2021/05/09 01:06:43;;;;;;;12.07;4.40;;;30.70;21.80;;;;;;1034816;28;20018;-77
2021/05/09 01:07:15;;;;;;;15.60;5.25;;;30.70;21.90;;;;;;1034740;28;20021;-77
2021/05/09 01:07:47;;;;;;;15.35;5.03;;;30.70;21.90;;;;;;1035902;28;20049;-77
2021/05/09 01:08:19;;;;;;;21.75;5.15;;;30.70;21.80;;;;;;1036919;28;20840;-76
2021/05/09 01:08:50;;;;;;;11.93;4.63;;;30.60;21.70;;;;;;1040533;28;20041;-76
2021/05/09 01:09:21;;;;;;;13.15;5.03;;;30.60;21.50;;;;;;1038317;28;20014;-77
2021/05/09 01:09:54;;;;;;;19.05;5.20;;;30.60;22.00;;;;;;1038086;28;20021;-77
2021/05/09 01:10:25;;;;;;;14.48;4.90;;;30.60;21.60;;;;;;1040438;28;20659;-77
2021/05/09 01:10:57;;;;;;;18.02;5.35;;;30.60;21.80;;;;;;1040287;28;20485;-77
2021/05/09 01:11:28;;;;;;;13.15;4.70;;;30.60;21.90;;;;;;1036562;28;20029;-77
2021/05/09 01:11:59;;;;;;;12.07;4.85;;;30.60;22.10;;;;;;1035013;28;20073;-77
2021/05/09 01:12:31;;;;;;;12.48;4.95;;;30.60;22.40;;;;;;1036675;28;20018;-77
2021/05/09 01:13:03;;;;;;;14.18;4.90;;;30.60;22.40;;;;;;1037088;28;20436;-77
2021/05/09 01:13:34;;;;;;;15.00;5.45;;;30.60;22.20;;;;;;1040736;28;20093;-76
2021/05/09 01:14:06;;;;;;;14.05;5.50;;;30.60;22.30;;;;;;1045198;28;20040;-76
2021/05/09 01:14:38;;;;;;;14.38;5.15;;;30.60;21.70;;;;;;1044750;28;20422;-77
2021/05/09 01:15:10;;;;;;;14.55;4.85;;;30.60;21.90;;;;;;1043748;28;20029;-77
2021/05/09 01:15:42;;;;;;;15.55;5.25;;;30.60;22.00;;;;;;1043933;28;20096;-77
2021/05/09 01:16:14;;;;;;;13.93;5.15;;;30.60;22.30;;;;;;1040541;28;20451;-77
2021/05/09 01:16:45;;;;;;;12.77;4.40;;;30.60;22.40;;;;;;1040484;28;20021;-77
2021/05/09 01:17:17;;;;;;;14.25;4.53;;;30.60;22.30;;;;;;1040546;28;20025;-77
2021/05/09 01:17:48;;;;;;;13.57;4.75;;;30.60;22.10;;;;;;1039532;28;20022;-77
2021/05/09 01:18:20;;;;;;;15.30;5.13;;;30.70;22.10;;;;;;1037126;28;20452;-77
2021/05/09 01:18:51;;;;;;;14.43;5.15;;;30.70;22.10;;;;;;1041011;28;20027;-77
2021/05/09 01:19:22;;;;;;;13.57;5.05;;;30.70;22.10;;;;;;1033298;28;20349;-77
2021/05/09 01:19:54;;;;;;;14.68;5.57;;;30.70;22.00;;;;;;1037372;28;20364;-77
2021/05/09 01:20:35;;;;;;;16.77;5.38;;;30.70;21.90;;;;;;1040759;28;20486;-77
2021/05/09 01:21:06;;;;;;;15.15;5.05;;;30.70;21.90;;;;;;1037107;28;20090;-77
2021/05/09 01:21:38;;;;;;;14.48;5.10;;;30.70;21.90;;;;;;1036272;28;20018;-77
2021/05/09 01:22:12;;;;;;;16.30;5.20;;;30.70;22.10;;;;;;1036584;28;20474;-76
2021/05/09 01:22:44;;;;;;;15.90;5.18;;;30.70;22.10;;;;;;1033389;28;20029;-77
2021/05/09 01:23:15;;;;;;;15.00;5.07;;;30.70;22.10;;;;;;1037396;28;20352;-77
2021/05/09 01:23:47;;;;;;;17.60;5.53;;;30.70;22.00;;;;;;1037834;28;20021;-77
2021/05/09 01:24:18;;;;;;;16.85;5.90;;;30.70;22.00;;;;;;1036783;28;20345;-77
2021/05/09 01:24:50;;;;;;;16.75;5.32;;;30.70;21.80;;;;;;1037104;28;20021;-77
2021/05/09 01:25:21;;;;;;;17.65;5.30;;;30.70;21.90;;;;;;1036428;28;20068;-77
2021/05/09 01:25:53;;;;;;;17.00;5.20;;;30.60;21.90;;;;;;1035776;28;20024;-77
2021/05/09 01:26:24;;;;;;;14.95;5.00;;;30.60;21.80;;;;;;1036304;28;20014;-76
2021/05/09 01:26:56;;;;;;;12.93;5.00;;;30.60;21.80;;;;;;1036905;28;20057;-77
2021/05/09 01:27:29;;;;;;;12.55;5.15;;;30.60;21.80;;;;;;1038002;28;20021;-77
2021/05/09 01:28:01;;;;;;;14.30;5.10;;;30.60;21.90;;;;;;1040804;28;20029;-77
2021/05/09 01:28:32;;;;;;;12.90;5.00;;;30.50;21.90;;;;;;1040522;28;20425;-77
2021/05/09 01:29:04;;;;;;;18.13;5.47;;;30.60;21.90;;;;;;1041118;28;20051;-77
2021/05/09 01:29:36;;;;;;;14.40;5.20;;;30.50;21.70;;;;;;1040756;28;20014;-77
2021/05/09 01:30:09;;;;;;;18.30;5.20;;;30.50;21.80;;;;;;1040765;28;20036;-77
2021/05/09 01:30:41;;;;;;;14.70;5.30;;;30.50;21.90;;;;;;1040687;28;20013;-77
2021/05/09 01:31:13;;;;;;;15.63;5.00;;;30.50;22.00;;;;;;1039896;28;20017;-77
2021/05/09 01:31:46;;;;;;;17.85;5.30;;;30.50;22.10;;;;;;1040773;28;20341;-77
2021/05/09 01:32:17;;;;;;;14.82;5.13;;;30.40;22.00;;;;;;1040749;28;20029;-77
2021/05/09 01:32:48;;;;;;;15.48;5.35;;;30.40;21.80;;;;;;1044759;28;20363;-77
2021/05/09 01:33:20;;;;;;;14.48;4.97;;;30.40;22.00;;;;;;1040298;28;20013;-77
2021/05/09 01:33:51;;;;;;;17.63;5.43;;;30.40;21.90;;;;;;1039598;28;20100;-77
2021/05/09 01:34:24;;;;;;;14.93;5.30;;;30.40;21.80;;;;;;1040543;28;20029;-77
2021/05/09 01:34:56;;;;;;;15.80;5.20;;;30.40;22.00;;;;;;1035015;28;20075;-77
2021/05/09 01:35:27;;;;;;;14.60;5.35;;;30.30;21.90;;;;;;1037747;28;20067;-77
2021/05/09 01:35:59;;;;;;;13.95;5.28;;;30.30;21.90;;;;;;1037936;28;20018;-77
2021/05/09 01:36:30;;;;;;;13.90;5.30;;;30.30;22.00;;;;;;1039846;28;20025;-77
2021/05/09 01:37:04;;;;;;;13.40;5.05;;;30.30;22.10;;;;;;1044004;28;20015;-77
2021/05/09 01:37:35;;;;;;;16.17;5.07;;;30.20;21.90;;;;;;1043932;28;20035;-77
2021/05/09 01:38:06;;;;;;;16.33;5.93;;;30.20;22.10;;;;;;1040360;28;20069;-77
2021/05/09 01:38:38;;;;;;;18.13;5.60;;;30.20;22.20;;;;;;1039779;28;20020;-77
2021/05/09 01:39:09;;;;;;;16.50;5.55;;;30.20;22.00;;;;;;1040158;28;20114;-77
2021/05/09 01:39:41;;;;;;;16.35;5.22;;;30.20;22.00;;;;;;1041192;28;20013;-77
2021/05/09 01:40:13;;;;;;;16.15;5.13;;;30.10;22.10;;;;;;1037486;28;20432;-77
2021/05/09 01:40:45;;;;;;;15.65;5.57;;;30.10;21.90;;;;;;1038295;28;20108;-77
2021/05/09 01:41:16;;;;;;;12.65;5.13;;;30.10;22.10;;;;;;1038129;28;20017;-77
2021/05/09 01:41:47;;;;;;;14.55;5.20;;;30.10;22.00;;;;;;1041169;28;20095;-78
2021/05/09 01:42:19;;;;;;;14.77;5.00;;;30.00;22.00;;;;;;1041399;28;20068;-77
2021/05/09 01:42:50;;;;;;;16.70;5.13;;;30.00;22.00;;;;;;1040718;28;20014;-77
2021/05/09 01:43:22;;;;;;;17.02;5.20;;;30.00;22.10;;;;;;1041120;28;20455;-77
2021/05/09 01:43:53;;;;;;;19.00;5.45;;;30.00;22.20;;;;;;1037600;28;20021;-77
2021/05/09 01:44:25;;;;;;;12.13;5.05;;;29.90;22.10;;;;;;1036920;28;20037;-77
2021/05/09 01:44:57;;;;;;;17.08;5.22;;;29.90;22.00;;;;;;1032794;28;20022;-77
2021/05/09 01:45:29;;;;;;;16.77;5.38;;;29.80;22.10;;;;;;1033486;28;20030;-77
2021/05/09 01:46:01;;;;;;;12.50;5.25;;;29.80;22.20;;;;;;1037529;28;20014;-77
2021/05/09 01:46:32;;;;;;;12.10;4.75;;;29.70;22.20;;;;;;1037267;28;20037;-78
2021/05/09 01:47:03;;;;;;;12.82;4.90;;;29.70;22.20;;;;;;1040551;28;20014;-77
2021/05/09 01:47:38;;;;;;;15.00;5.05;;;29.70;22.20;;;;;;1041068;28;20013;-77
2021/05/09 01:48:09;;;;;;;15.48;5.05;;;29.70;22.30;;;;;;1037845;28;20021;-77
2021/05/09 01:48:41;;;;;;;18.15;5.10;;;29.70;22.40;;;;;;1036545;28;20083;-77
2021/05/09 01:49:12;;;;;;;15.52;5.28;;;29.60;22.30;;;;;;1033191;28;20034;-77
2021/05/09 01:49:43;;;;;;;17.50;5.95;;;29.60;22.30;;;;;;1032310;28;20019;-77
2021/05/09 01:50:18;;;;;;;16.67;5.20;;;29.60;22.20;;;;;;1034796;28;20105;-77
2021/05/09 01:50:49;;;;;;;16.55;5.53;;;29.50;22.30;;;;;;1037903;28;20060;-77
2021/05/09 01:51:22;;;;;;;13.15;4.93;;;29.50;22.30;;;;;;1037139;28;20052;-77
2021/05/09 01:51:55;;;;;;;19.38;5.53;;;29.40;22.40;;;;;;1037444;28;20376;-77
2021/05/09 01:52:26;;;;;;;15.02;5.30;;;29.40;22.50;;;;;;1032101;28;20376;-77
2021/05/09 01:53:01;;;;;;;14.85;5.45;;;29.40;22.60;;;;;;1031983;28;20077;-77
2021/05/09 01:53:32;;;;;;;14.07;5.47;;;29.40;22.60;;;;;;1033661;28;20022;-78
2021/05/09 01:54:04;;;;;;;12.68;5.07;;;29.30;22.50;;;;;;1034549;28;20428;-77
2021/05/09 01:54:35;;;;;;;16.63;5.70;;;29.30;22.60;;;;;;1035613;28;20022;-77
2021/05/09 01:55:10;;;;;;;16.55;5.50;;;29.20;22.60;;;;;;1034869;28;20022;-78
2021/05/09 01:55:41;;;;;;;15.30;5.30;;;29.30;22.70;;;;;;1039469;28;20073;-76
2021/05/09 01:56:14;;;;;;;16.92;5.40;;;29.30;22.70;;;;;;1037876;28;20030;-77
2021/05/09 01:56:45;;;;;;;13.77;4.80;;;29.30;22.70;;;;;;1042145;28;20054;-77
2021/05/09 01:57:17;;;;;;;17.20;5.53;;;29.30;22.80;;;;;;1045511;28;20031;-77
2021/05/09 01:57:48;;;;;;;13.93;5.22;;;29.20;22.80;;;;;;1043882;28;20041;-78
2021/05/09 01:58:20;;;;;;;14.63;5.30;;;29.20;22.60;;;;;;1041822;28;20127;-78
2021/05/09 01:58:51;;;;;;;13.85;5.10;;;29.10;22.60;;;;;;1038754;28;20033;-78
2021/05/09 01:59:22;;;;;;;14.95;5.07;;;29.20;22.60;;;;;;1041041;28;20899;-77
2021/05/09 01:59:54;;;;;;;16.75;5.20;;;29.10;22.40;;;;;;1037115;28;20064;-77
2021/05/09 02:00:25;;;;;;;14.63;5.15;;;29.10;22.60;;;;;;1033888;28;20032;-77
2021/05/09 02:00:57;;;;;;;15.15;5.07;;;29.10;22.80;;;;;;1033564;28;20033;-78
2021/05/09 02:01:28;;;;;;;15.30;5.32;;;29.10;22.60;;;;;;1029980;28;20038;-77
2021/05/09 02:02:00;;;;;;;12.35;4.95;;;29.00;22.50;;;;;;1034057;28;20022;-77
2021/05/09 02:02:32;;;;;;;15.02;4.93;;;29.00;22.60;;;;;;1038393;28;20018;-77
2021/05/09 02:03:03;;;;;;;14.63;5.22;;;29.00;22.60;;;;;;1041519;28;20026;-77
2021/05/09 02:03:35;;;;;;;14.68;4.75;;;29.00;22.60;;;;;;1041189;28;20026;-78
2021/05/09 02:04:06;;;;;;;15.43;5.60;;;29.00;22.70;;;;;;1037054;28;20033;-78
2021/05/09 02:04:38;;;;;;;12.13;5.20;;;28.90;22.70;;;;;;1032247;28;20460;-78
2021/05/09 02:05:10;;;;;;;13.60;5.30;;;28.80;22.60;;;;;;1028580;28;20038;-77
2021/05/09 02:05:42;;;;;;;13.75;4.90;;;28.90;22.70;;;;;;1033488;28;20041;-77
2021/05/09 02:06:13;;;;;;;15.40;5.47;;;28.80;22.80;;;;;;1037060;28;20479;-77
2021/05/09 02:06:45;;;;;;;14.93;5.20;;;28.80;23.00;;;;;;1041270;28;20060;-77
2021/05/09 02:07:16;;;;;;;15.23;5.20;;;28.80;23.00;;;;;;1041202;28;20051;-77
2021/05/09 02:07:47;;;;;;;16.15;5.28;;;28.80;23.00;;;;;;1041132;28;20079;-78
2021/05/09 02:08:21;;;;;;;13.45;5.43;;;28.80;23.10;;;;;;1040983;28;20025;-78
2021/05/09 02:08:53;;;;;;;15.80;5.75;;;28.70;23.10;;;;;;1041040;28;20067;-77
2021/05/09 02:09:24;;;;;;;17.77;5.72;;;28.70;23.00;;;;;;1044333;28;20033;-77
2021/05/09 02:09:55;;;;;;;14.95;4.88;;;28.60;22.90;;;;;;1039516;28;20944;-77
2021/05/09 02:10:27;;;;;;;15.90;5.68;;;28.60;23.50;;;;;;1033501;28;20018;-77
2021/05/09 02:10:58;;;;;;;18.63;5.50;;;28.60;23.00;;;;;;1037046;28;20034;-77
2021/05/09 02:11:30;;;;;;;16.33;6.13;;;28.50;22.90;;;;;;1033410;28;20033;-78
2021/05/09 02:12:01;;;;;;;18.20;5.68;;;28.50;23.00;;;;;;1033207;28;20027;-77
2021/05/09 02:12:32;;;;;;;16.27;6.57;;;28.50;23.00;;;;;;1036510;28;20141;-77
2021/05/09 02:13:04;;;;;;;16.02;5.70;;;28.40;23.00;;;;;;1037232;28;20008;-77
2021/05/09 02:13:36;;;;;;;14.77;5.55;;;28.40;23.20;;;;;;1040000;28;20018;-77
2021/05/09 02:14:08;;;;;;;18.50;7.53;;;28.50;23.10;;;;;;1042651;28;20046;-78
2021/05/09 02:14:40;;;;;;;21.30;7.70;;;28.40;23.10;;;;;;1042083;28;21506;-78
2021/05/09 02:15:12;;;;;;;15.07;5.28;;;28.40;23.20;;;;;;1041179;28;20025;-78
2021/05/09 02:15:43;;;;;;;16.52;5.35;;;28.30;23.00;;;;;;1036796;28;20017;-79
2021/05/09 02:16:15;;;;;;;17.73;5.93;;;28.30;22.90;;;;;;1037058;28;20028;-79
2021/05/09 02:16:46;;;;;;;17.55;5.68;;;28.30;23.10;;;;;;1037579;28;20045;-79
2021/05/09 02:17:18;;;;;;;16.15;8.10;;;28.20;23.10;;;;;;1037960;28;20010;-78
2021/05/09 02:17:49;;;;;;;14.82;5.60;;;28.20;23.70;;;;;;1038094;28;20088;-78
2021/05/09 02:18:21;;;;;;;17.58;5.25;;;28.20;23.20;;;;;;1038030;28;20014;-77
2021/05/09 02:18:52;;;;;;;27.98;16.50;;;28.10;23.10;;;;;;1034678;28;20066;-78
2021/05/09 02:19:23;;;;;;;16.05;6.65;;;28.10;23.20;;;;;;1035418;28;20021;-77
2021/05/09 02:19:55;;;;;;;14.82;5.95;;;28.10;23.20;;;;;;1037292;28;20104;-77
2021/05/09 02:20:26;;;;;;;90.63;81.45;;;28.00;23.10;;;;;;1036767;28;20018;-77
2021/05/09 02:20:58;;;;;;;38.50;27.67;;;28.00;23.20;;;;;;1039960;28;20100;-78
2021/05/09 02:21:29;;;;;;;26.42;19.05;;;28.00;23.20;;;;;;1036901;28;20014;-78
2021/05/09 02:22:01;;;;;;;16.90;8.23;;;27.90;23.20;;;;;;1036042;28;20018;-78
2021/05/09 02:22:32;;;;;;;15.93;5.55;;;27.90;23.10;;;;;;1036888;28;20528;-77
2021/05/09 02:23:04;;;;;;;21.75;6.88;;;27.90;23.10;;;;;;1036433;28;20065;-77
2021/05/09 02:23:35;;;;;;;21.02;8.82;;;27.80;23.10;;;;;;1032393;28;20015;-79
2021/05/09 02:24:07;;;;;;;17.08;5.60;;;27.90;23.30;;;;;;1031864;28;20010;-78
2021/05/09 02:24:38;;;;;;;15.43;6.22;;;27.80;23.30;;;;;;1031200;28;20054;-77
2021/05/09 02:25:10;;;;;;;21.60;8.50;;;27.80;23.30;;;;;;1028264;28;20029;-78
2021/05/09 02:25:42;;;;;;;23.92;10.73;;;27.80;23.30;;;;;;1029980;28;20007;-78
2021/05/09 02:26:13;;;;;;;18.17;6.00;;;27.80;23.40;;;;;;1030468;28;20023;-77
2021/05/09 02:26:44;;;;;;;17.13;5.95;;;27.70;23.50;;;;;;1029087;28;20393;-78
2021/05/09 02:27:16;;;;;;;16.98;5.10;;;27.70;23.50;;;;;;1035140;28;20357;-77
2021/05/09 02:27:47;;;;;;;15.15;5.13;;;27.70;23.70;;;;;;1039402;28;20101;-77
2021/05/09 02:28:19;;;;;;;16.52;5.10;;;27.70;23.70;;;;;;1036592;28;20025;-77
2021/05/09 02:28:50;;;;;;;12.93;5.32;;;27.70;23.40;;;;;;1036890;28;20029;-77
2021/05/09 02:29:22;;;;;;;16.05;5.00;;;27.60;23.40;;;;;;1039381;28;20022;-77
2021/05/09 02:29:53;;;;;;;14.18;5.40;;;27.60;23.50;;;;;;1040023;28;20028;-77
2021/05/09 02:30:24;;;;;;;18.50;5.20;;;27.60;23.50;;;;;;1036224;28;20468;-77
2021/05/09 02:30:56;;;;;;;16.67;5.40;;;27.60;23.50;;;;;;1036569;28;20017;-78
2021/05/09 02:31:27;;;;;;;15.55;5.32;;;27.50;23.60;;;;;;1036272;28;20408;-77
2021/05/09 02:31:58;;;;;;;14.20;5.03;;;27.50;23.60;;;;;;1036956;28;20017;-77
2021/05/09 02:32:30;;;;;;;16.02;5.55;;;27.50;23.60;;;;;;1040884;28;20022;-78
2021/05/09 02:33:01;;;;;;;15.30;5.07;;;27.50;23.70;;;;;;1040970;28;20041;-77
2021/05/09 02:33:33;;;;;;;17.85;5.22;;;27.40;23.70;;;;;;1040519;28;20025;-78
2021/05/09 02:34:04;;;;;;;16.00;5.20;;;27.40;23.70;;;;;;1041405;28;20025;-77
2021/05/09 02:34:36;;;;;;;12.75;4.90;;;27.40;23.80;;;;;;1036649;28;20041;-77
2021/05/09 02:35:08;;;;;;;16.92;5.45;;;27.40;23.90;;;;;;1038786;28;20014;-78
2021/05/09 02:35:39;;;;;;;14.75;5.38;;;27.40;24.00;;;;;;1033114;28;20110;-78
2021/05/09 02:36:11;;;;;;;15.95;5.50;;;27.30;24.10;;;;;;1036465;28;20098;-77
2021/05/09 02:36:44;;;;;;;16.10;5.57;;;27.30;24.00;;;;;;1041293;28;20049;-77
2021/05/09 02:37:15;;;;;;;15.23;5.40;;;27.30;23.90;;;;;;1037938;28;20403;-77
2021/05/09 02:37:47;;;;;;;14.63;5.65;;;27.30;24.00;;;;;;1040611;28;20050;-77
2021/05/09 02:38:18;;;;;;;16.30;5.55;;;27.20;24.00;;;;;;1041086;28;20100;-78
2021/05/09 02:38:49;;;;;;;16.83;5.35;;;27.20;24.00;;;;;;1040805;28;20360;-78
2021/05/09 02:39:21;;;;;;;15.95;5.65;;;27.20;24.10;;;;;;1041349;28;20025;-78
2021/05/09 02:39:52;;;;;;;16.58;5.45;;;27.20;24.20;;;;;;1041036;28;20167;-78
2021/05/09 02:40:24;;;;;;;16.70;5.45;;;27.10;24.10;;;;;;1039485;28;20021;-78
2021/05/09 02:40:55;;;;;;;16.67;5.55;;;27.10;24.20;;;;;;1032969;28;20030;-78
2021/05/09 02:41:26;;;;;;;19.35;5.82;;;27.10;24.30;;;;;;1036340;28;20022;-78
2021/05/09 02:41:59;;;;;;;18.17;5.32;;;27.10;24.30;;;;;;1032886;28;20022;-78
2021/05/09 02:42:30;;;;;;;15.02;5.55;;;27.00;24.40;;;;;;1036499;28;20109;-77
2021/05/09 02:43:01;;;;;;;20.63;5.95;;;27.00;24.50;;;;;;1032967;28;20045;-78
2021/05/09 02:43:33;;;;;;;17.17;5.25;;;27.00;24.50;;;;;;1029498;28;20050;-77